sensor_id;sensor_type;location;lat;lon;timestamp;temperature;humidity
78514;SHT31;67814;51.976;5.810;2023-07-13T00:01:12;17.8;69.5
78514;SHT31;67814;51.976;5.810;2023-07-13T00:03:41;17.8;69.3
78514;SHT31;67814;51.976;5.810;2023-07-13T00:06:10;17.8;69.9
78514;SHT31;67814;51.976;5.810;2023-07-13T00:08:39;17.8;69.8
78514;SHT31;67814;51.976;5.810;2023-07-13T00:11:07;17.8;70.4
78514;SHT31;67814;51.976;5.810;2023-07-13T00:13:37;17.8;69.6
78514;SHT31;67814;51.976;5.810;2023-07-13T00:16:06;17.9;69.5
78514;SHT31;67814;51.976;5.810;2023-07-13T00:18:35;17.9;69.1
78514;SHT31;67814;51.976;5.810;2023-07-13T00:21:04;17.9;69.1
78514;SHT31;67814;51.976;5.810;2023-07-13T00:23:36;17.9;69.2
78514;SHT31;67814;51.976;5.810;2023-07-13T00:26:07;18.0;69.2
78514;SHT31;67814;51.976;5.810;2023-07-13T00:28:39;18.0;69.1
78514;SHT31;67814;51.976;5.810;2023-07-13T00:31:09;18.0;68.4
78514;SHT31;67814;51.976;5.810;2023-07-13T00:33:38;18.0;67.7
78514;SHT31;67814;51.976;5.810;2023-07-13T00:36:09;18.0;69.3
78514;SHT31;67814;51.976;5.810;2023-07-13T00:38:37;18.0;68.3
78514;SHT31;67814;51.976;5.810;2023-07-13T00:41:08;18.0;68.2
78514;SHT31;67814;51.976;5.810;2023-07-13T00:43:37;18.0;68.4
78514;SHT31;67814;51.976;5.810;2023-07-13T00:46:18;18.0;68.7
78514;SHT31;67814;51.976;5.810;2023-07-13T00:48:49;18.0;68.5
78514;SHT31;67814;51.976;5.810;2023-07-13T00:51:22;18.0;68.6
78514;SHT31;67814;51.976;5.810;2023-07-13T00:53:54;18.0;67.7
78514;SHT31;67814;51.976;5.810;2023-07-13T00:56:25;18.0;67.8
78514;SHT31;67814;51.976;5.810;2023-07-13T00:58:55;18.0;67.5
78514;SHT31;67814;51.976;5.810;2023-07-13T01:01:25;18.0;68.0
78514;SHT31;67814;51.976;5.810;2023-07-13T01:03:54;17.9;68.2
78514;SHT31;67814;51.976;5.810;2023-07-13T01:06:23;17.9;68.0
78514;SHT31;67814;51.976;5.810;2023-07-13T01:08:52;17.9;68.1
78514;SHT31;67814;51.976;5.810;2023-07-13T01:11:21;17.9;67.6
78514;SHT31;67814;51.976;5.810;2023-07-13T01:13:50;17.8;67.9
78514;SHT31;67814;51.976;5.810;2023-07-13T01:16:28;17.8;68.2
78514;SHT31;67814;51.976;5.810;2023-07-13T01:18:58;17.8;67.7
78514;SHT31;67814;51.976;5.810;2023-07-13T01:21:29;17.7;67.5
78514;SHT31;67814;51.976;5.810;2023-07-13T01:23:58;17.7;67.8
78514;SHT31;67814;51.976;5.810;2023-07-13T01:26:28;17.7;67.8
78514;SHT31;67814;51.976;5.810;2023-07-13T01:28:57;17.7;68.3
78514;SHT31;67814;51.976;5.810;2023-07-13T01:31:25;17.6;68.6
78514;SHT31;67814;51.976;5.810;2023-07-13T01:33:54;17.6;68.4
78514;SHT31;67814;51.976;5.810;2023-07-13T01:36:25;17.6;68.5
78514;SHT31;67814;51.976;5.810;2023-07-13T01:38:53;17.5;68.7
78514;SHT31;67814;51.976;5.810;2023-07-13T01:41:22;17.5;68.6
78514;SHT31;67814;51.976;5.810;2023-07-13T01:43:51;17.5;67.4
78514;SHT31;67814;51.976;5.810;2023-07-13T01:46:19;17.5;68.8
78514;SHT31;67814;51.976;5.810;2023-07-13T01:48:48;17.4;67.9
78514;SHT31;67814;51.976;5.810;2023-07-13T01:51:19;17.4;68.3
78514;SHT31;67814;51.976;5.810;2023-07-13T01:53:48;17.4;68.4
78514;SHT31;67814;51.976;5.810;2023-07-13T01:56:16;17.4;68.0
78514;SHT31;67814;51.976;5.810;2023-07-13T01:58:45;17.4;68.6
78514;SHT31;67814;51.976;5.810;2023-07-13T02:01:14;17.4;68.5
78514;SHT31;67814;51.976;5.810;2023-07-13T02:03:42;17.4;68.1
78514;SHT31;67814;51.976;5.810;2023-07-13T02:06:11;17.4;68.7
78514;SHT31;67814;51.976;5.810;2023-07-13T02:08:40;17.4;68.4
78514;SHT31;67814;51.976;5.810;2023-07-13T02:11:10;17.4;68.6
78514;SHT31;67814;51.976;5.810;2023-07-13T02:13:39;17.4;68.1
78514;SHT31;67814;51.976;5.810;2023-07-13T02:16:07;17.4;68.1
78514;SHT31;67814;51.976;5.810;2023-07-13T02:18:36;17.4;68.8
78514;SHT31;67814;51.976;5.810;2023-07-13T02:21:04;17.3;68.6
78514;SHT31;67814;51.976;5.810;2023-07-13T02:23:33;17.3;68.1
78514;SHT31;67814;51.976;5.810;2023-07-13T02:26:03;17.3;67.6
78514;SHT31;67814;51.976;5.810;2023-07-13T02:28:32;17.3;68.6
78514;SHT31;67814;51.976;5.810;2023-07-13T02:31:06;17.3;67.9
78514;SHT31;67814;51.976;5.810;2023-07-13T02:33:35;17.3;67.4
78514;SHT31;67814;51.976;5.810;2023-07-13T02:36:05;17.3;67.3
78514;SHT31;67814;51.976;5.810;2023-07-13T02:38:35;17.3;67.5
78514;SHT31;67814;51.976;5.810;2023-07-13T02:41:05;17.3;67.4
78514;SHT31;67814;51.976;5.810;2023-07-13T02:43:35;17.3;68.5
78514;SHT31;67814;51.976;5.810;2023-07-13T02:46:03;17.3;68.4
78514;SHT31;67814;51.976;5.810;2023-07-13T02:48:34;17.3;68.6
78514;SHT31;67814;51.976;5.810;2023-07-13T02:51:03;17.3;68.3
78514;SHT31;67814;51.976;5.810;2023-07-13T02:53:32;17.3;67.9
78514;SHT31;67814;51.976;5.810;2023-07-13T02:56:02;17.2;67.9
78514;SHT31;67814;51.976;5.810;2023-07-13T02:58:31;17.2;68.9
78514;SHT31;67814;51.976;5.810;2023-07-13T03:01:06;17.2;68.8
78514;SHT31;67814;51.976;5.810;2023-07-13T03:03:35;17.2;69.2
78514;SHT31;67814;51.976;5.810;2023-07-13T03:06:04;17.2;69.1
78514;SHT31;67814;51.976;5.810;2023-07-13T03:08:34;17.2;68.7
78514;SHT31;67814;51.976;5.810;2023-07-13T03:11:05;17.2;68.7
78514;SHT31;67814;51.976;5.810;2023-07-13T03:13:34;17.2;68.3
78514;SHT31;67814;51.976;5.810;2023-07-13T03:16:03;17.2;68.7
78514;SHT31;67814;51.976;5.810;2023-07-13T03:18:32;17.2;68.9
78514;SHT31;67814;51.976;5.810;2023-07-13T03:21:01;17.2;69.0
78514;SHT31;67814;51.976;5.810;2023-07-13T03:23:29;17.2;69.5
78514;SHT31;67814;51.976;5.810;2023-07-13T03:26:06;17.2;70.0
78514;SHT31;67814;51.976;5.810;2023-07-13T03:28:36;17.2;69.6
78514;SHT31;67814;51.976;5.810;2023-07-13T03:31:07;17.1;69.3
78514;SHT31;67814;51.976;5.810;2023-07-13T03:33:37;17.1;69.0
78514;SHT31;67814;51.976;5.810;2023-07-13T03:36:09;17.1;69.3
78514;SHT31;67814;51.976;5.810;2023-07-13T03:38:38;17.1;69.8
78514;SHT31;67814;51.976;5.810;2023-07-13T03:41:06;17.1;69.8
78514;SHT31;67814;51.976;5.810;2023-07-13T03:43:37;17.1;69.6
78514;SHT31;67814;51.976;5.810;2023-07-13T03:46:05;17.1;70.0
78514;SHT31;67814;51.976;5.810;2023-07-13T03:48:34;17.1;70.1
78514;SHT31;67814;51.976;5.810;2023-07-13T03:51:03;17.1;70.4
78514;SHT31;67814;51.976;5.810;2023-07-13T03:53:34;17.1;69.7
78514;SHT31;67814;51.976;5.810;2023-07-13T03:56:03;17.1;69.7
78514;SHT31;67814;51.976;5.810;2023-07-13T03:58:34;17.1;69.4
78514;SHT31;67814;51.976;5.810;2023-07-13T04:01:05;17.1;69.5
78514;SHT31;67814;51.976;5.810;2023-07-13T04:03:34;17.1;69.3
78514;SHT31;67814;51.976;5.810;2023-07-13T04:06:06;17.1;70.6
78514;SHT31;67814;51.976;5.810;2023-07-13T04:08:36;17.1;70.5
78514;SHT31;67814;51.976;5.810;2023-07-13T04:11:05;17.1;70.1
78514;SHT31;67814;51.976;5.810;2023-07-13T04:13:33;17.1;70.3
78514;SHT31;67814;51.976;5.810;2023-07-13T04:16:02;17.1;69.9
78514;SHT31;67814;51.976;5.810;2023-07-13T04:18:31;17.1;70.4
78514;SHT31;67814;51.976;5.810;2023-07-13T04:21:00;17.1;70.2
78514;SHT31;67814;51.976;5.810;2023-07-13T04:23:28;17.1;70.1
78514;SHT31;67814;51.976;5.810;2023-07-13T04:25:57;17.1;71.1
78514;SHT31;67814;51.976;5.810;2023-07-13T04:28:26;17.1;70.7
78514;SHT31;67814;51.976;5.810;2023-07-13T04:30:55;17.1;71.1
78514;SHT31;67814;51.976;5.810;2023-07-13T04:33:24;17.2;70.8
78514;SHT31;67814;51.976;5.810;2023-07-13T04:35:54;17.2;70.4
78514;SHT31;67814;51.976;5.810;2023-07-13T04:38:27;17.2;70.7
78514;SHT31;67814;51.976;5.810;2023-07-13T04:40:58;17.3;71.6
78514;SHT31;67814;51.976;5.810;2023-07-13T04:43:28;17.3;70.6
78514;SHT31;67814;51.976;5.810;2023-07-13T04:46:05;17.4;70.8
78514;SHT31;67814;51.976;5.810;2023-07-13T04:48:35;17.4;70.7
78514;SHT31;67814;51.976;5.810;2023-07-13T04:51:04;17.5;71.0
78514;SHT31;67814;51.976;5.810;2023-07-13T04:53:35;17.6;70.4
78514;SHT31;67814;51.976;5.810;2023-07-13T04:56:04;17.6;70.6
78514;SHT31;67814;51.976;5.810;2023-07-13T04:58:33;17.7;70.6
78514;SHT31;67814;51.976;5.810;2023-07-13T05:01:03;17.7;70.4
78514;SHT31;67814;51.976;5.810;2023-07-13T05:03:33;17.8;70.2
78514;SHT31;67814;51.976;5.810;2023-07-13T05:06:06;17.9;71.1
78514;SHT31;67814;51.976;5.810;2023-07-13T05:08:36;18.0;70.8
78514;SHT31;67814;51.976;5.810;2023-07-13T05:11:07;18.0;69.4
78514;SHT31;67814;51.976;5.810;2023-07-13T05:13:36;18.1;70.0
78514;SHT31;67814;51.976;5.810;2023-07-13T05:16:05;18.2;69.5
78514;SHT31;67814;51.976;5.810;2023-07-13T05:18:35;18.3;69.0
78514;SHT31;67814;51.976;5.810;2023-07-13T05:21:07;18.3;68.6
78514;SHT31;67814;51.976;5.810;2023-07-13T05:23:37;18.4;69.6
78514;SHT31;67814;51.976;5.810;2023-07-13T05:26:09;18.4;68.9
78514;SHT31;67814;51.976;5.810;2023-07-13T05:28:39;18.5;69.2
78514;SHT31;67814;51.976;5.810;2023-07-13T05:31:09;18.5;69.3
78514;SHT31;67814;51.976;5.810;2023-07-13T05:33:38;18.6;68.5
78514;SHT31;67814;51.976;5.810;2023-07-13T05:36:08;18.6;68.2
78514;SHT31;67814;51.976;5.810;2023-07-13T05:38:37;18.7;68.7
78514;SHT31;67814;51.976;5.810;2023-07-13T05:41:06;18.7;68.3
78514;SHT31;67814;51.976;5.810;2023-07-13T05:43:35;18.8;69.2
78514;SHT31;67814;51.976;5.810;2023-07-13T05:46:04;18.8;67.9
78514;SHT31;67814;51.976;5.810;2023-07-13T05:48:32;18.9;68.3
78514;SHT31;67814;51.976;5.810;2023-07-13T05:51:01;18.9;67.6
78514;SHT31;67814;51.976;5.810;2023-07-13T05:53:30;19.0;68.0
78514;SHT31;67814;51.976;5.810;2023-07-13T05:55:58;19.0;68.2
78514;SHT31;67814;51.976;5.810;2023-07-13T05:58:27;19.1;68.4
78514;SHT31;67814;51.976;5.810;2023-07-13T06:01:01;19.1;67.9
78514;SHT31;67814;51.976;5.810;2023-07-13T06:03:30;19.2;67.7
78514;SHT31;67814;51.976;5.810;2023-07-13T06:05:59;19.2;67.6
78514;SHT31;67814;51.976;5.810;2023-07-13T06:08:28;19.3;67.6
78514;SHT31;67814;51.976;5.810;2023-07-13T06:11:01;19.3;68.1
78514;SHT31;67814;51.976;5.810;2023-07-13T06:13:30;19.4;67.9
78514;SHT31;67814;51.976;5.810;2023-07-13T06:16:00;19.5;67.2
78514;SHT31;67814;51.976;5.810;2023-07-13T06:18:30;19.5;67.2
78514;SHT31;67814;51.976;5.810;2023-07-13T06:20:59;19.6;67.2
78514;SHT31;67814;51.976;5.810;2023-07-13T06:23:28;19.6;67.4
78514;SHT31;67814;51.976;5.810;2023-07-13T06:25:56;19.7;67.5
78514;SHT31;67814;51.976;5.810;2023-07-13T06:28:25;19.7;67.8
78514;SHT31;67814;51.976;5.810;2023-07-13T06:30:54;19.8;67.3
78514;SHT31;67814;51.976;5.810;2023-07-13T06:33:23;19.8;67.2
78514;SHT31;67814;51.976;5.810;2023-07-13T06:35:51;19.9;66.9
78514;SHT31;67814;51.976;5.810;2023-07-13T06:38:21;20.0;67.3
78514;SHT31;67814;51.976;5.810;2023-07-13T06:40:52;20.1;67.6
78514;SHT31;67814;51.976;5.810;2023-07-13T06:43:20;20.2;66.1
78514;SHT31;67814;51.976;5.810;2023-07-13T06:45:53;20.2;65.7
78514;SHT31;67814;51.976;5.810;2023-07-13T06:48:23;20.3;66.2
78514;SHT31;67814;51.976;5.810;2023-07-13T06:50:52;20.3;66.8
78514;SHT31;67814;51.976;5.810;2023-07-13T06:53:21;20.4;67.5
78514;SHT31;67814;51.976;5.810;2023-07-13T06:55:51;20.5;66.5
78514;SHT31;67814;51.976;5.810;2023-07-13T06:58:22;20.5;65.7
78514;SHT31;67814;51.976;5.810;2023-07-13T07:00:52;20.6;65.6
78514;SHT31;67814;51.976;5.810;2023-07-13T07:03:21;20.7;65.8
78514;SHT31;67814;51.976;5.810;2023-07-13T07:05:50;20.7;64.9
78514;SHT31;67814;51.976;5.810;2023-07-13T07:08:18;20.8;65.3
78514;SHT31;67814;51.976;5.810;2023-07-13T07:10:47;20.8;64.9
78514;SHT31;67814;51.976;5.810;2023-07-13T07:13:20;20.8;65.5
78514;SHT31;67814;51.976;5.810;2023-07-13T07:15:49;20.8;64.4
78514;SHT31;67814;51.976;5.810;2023-07-13T07:18:18;20.8;64.8
78514;SHT31;67814;51.976;5.810;2023-07-13T07:20:47;20.8;63.7
78514;SHT31;67814;51.976;5.810;2023-07-13T07:23:17;20.8;63.9
78514;SHT31;67814;51.976;5.810;2023-07-13T07:25:45;20.8;64.2
78514;SHT31;67814;51.976;5.810;2023-07-13T07:28:16;20.8;65.0
78514;SHT31;67814;51.976;5.810;2023-07-13T07:30:45;20.8;64.4
78514;SHT31;67814;51.976;5.810;2023-07-13T07:33:14;20.8;64.5
78514;SHT31;67814;51.976;5.810;2023-07-13T07:35:44;20.7;65.2
78514;SHT31;67814;51.976;5.810;2023-07-13T07:38:13;20.8;65.8
78514;SHT31;67814;51.976;5.810;2023-07-13T07:40:42;20.8;64.8
78514;SHT31;67814;51.976;5.810;2023-07-13T07:43:12;20.8;65.2
78514;SHT31;67814;51.976;5.810;2023-07-13T07:45:41;20.8;65.0
78514;SHT31;67814;51.976;5.810;2023-07-13T07:48:09;20.9;64.7
78514;SHT31;67814;51.976;5.810;2023-07-13T07:50:38;20.9;64.2
78514;SHT31;67814;51.976;5.810;2023-07-13T07:53:07;20.9;64.4
78514;SHT31;67814;51.976;5.810;2023-07-13T07:55:37;21.0;65.0
78514;SHT31;67814;51.976;5.810;2023-07-13T07:58:06;21.0;64.6
78514;SHT31;67814;51.976;5.810;2023-07-13T08:00:34;21.1;64.8
78514;SHT31;67814;51.976;5.810;2023-07-13T08:03:03;21.2;64.7
78514;SHT31;67814;51.976;5.810;2023-07-13T08:05:32;21.3;64.6
78514;SHT31;67814;51.976;5.810;2023-07-13T08:08:03;21.4;63.8
78514;SHT31;67814;51.976;5.810;2023-07-13T08:10:35;21.5;65.4
78514;SHT31;67814;51.976;5.810;2023-07-13T08:13:04;21.7;64.1
78514;SHT31;67814;51.976;5.810;2023-07-13T08:15:32;21.8;62.5
78514;SHT31;67814;51.976;5.810;2023-07-13T08:18:01;21.9;61.5
78514;SHT31;67814;51.976;5.810;2023-07-13T08:20:30;22.0;61.0
78514;SHT31;67814;51.976;5.810;2023-07-13T08:22:58;22.0;61.9
78514;SHT31;67814;51.976;5.810;2023-07-13T08:25:27;22.1;62.3
78514;SHT31;67814;51.976;5.810;2023-07-13T08:27:55;22.2;62.0
78514;SHT31;67814;51.976;5.810;2023-07-13T08:30:24;22.4;60.8
78514;SHT31;67814;51.976;5.810;2023-07-13T08:32:53;22.5;61.0
78514;SHT31;67814;51.976;5.810;2023-07-13T08:35:21;22.7;62.5
78514;SHT31;67814;51.976;5.810;2023-07-13T08:37:52;22.8;58.7
78514;SHT31;67814;51.976;5.810;2023-07-13T08:40:25;22.9;58.4
78514;SHT31;67814;51.976;5.810;2023-07-13T08:42:57;23.0;57.6
78514;SHT31;67814;51.976;5.810;2023-07-13T08:45:43;23.0;58.1
78514;SHT31;67814;51.976;5.810;2023-07-13T08:48:10;22.9;57.0
78514;SHT31;67814;51.976;5.810;2023-07-13T08:50:49;22.9;56.3
78514;SHT31;67814;51.976;5.810;2023-07-13T08:53:19;22.8;56.3
78514;SHT31;67814;51.976;5.810;2023-07-13T08:55:57;22.7;57.9
78514;SHT31;67814;51.976;5.810;2023-07-13T08:58:27;22.7;55.7
78514;SHT31;67814;51.976;5.810;2023-07-13T09:01:03;22.7;56.5
78514;SHT31;67814;51.976;5.810;2023-07-13T09:03:46;22.7;57.3
78514;SHT31;67814;51.976;5.810;2023-07-13T09:06:22;22.7;58.1
78514;SHT31;67814;51.976;5.810;2023-07-13T09:09:01;22.9;56.4
78514;SHT31;67814;51.976;5.810;2023-07-13T09:11:50;23.0;55.6
78514;SHT31;67814;51.976;5.810;2023-07-13T09:14:37;23.1;54.7
78514;SHT31;67814;51.976;5.810;2023-07-13T09:17:13;23.2;54.0
78514;SHT31;67814;51.976;5.810;2023-07-13T09:19:44;23.2;54.0
78514;SHT31;67814;51.976;5.810;2023-07-13T09:22:19;23.3;53.7
78514;SHT31;67814;51.976;5.810;2023-07-13T09:24:55;23.3;54.0
78514;SHT31;67814;51.976;5.810;2023-07-13T09:27:29;23.3;54.9
78514;SHT31;67814;51.976;5.810;2023-07-13T09:30:04;23.3;54.7
78514;SHT31;67814;51.976;5.810;2023-07-13T09:32:38;23.3;54.4
78514;SHT31;67814;51.976;5.810;2023-07-13T09:35:13;23.2;54.2
78514;SHT31;67814;51.976;5.810;2023-07-13T09:37:45;23.1;54.8
78514;SHT31;67814;51.976;5.810;2023-07-13T09:40:23;23.1;55.7
78514;SHT31;67814;51.976;5.810;2023-07-13T09:42:54;23.0;58.1
78514;SHT31;67814;51.976;5.810;2023-07-13T09:45:30;23.0;57.0
78514;SHT31;67814;51.976;5.810;2023-07-13T09:48:10;22.9;56.8
78514;SHT31;67814;51.976;5.810;2023-07-13T09:50:40;22.9;58.8
78514;SHT31;67814;51.976;5.810;2023-07-13T09:53:14;22.8;59.5
78514;SHT31;67814;51.976;5.810;2023-07-13T09:55:45;22.8;60.5
78514;SHT31;67814;51.976;5.810;2023-07-13T09:58:16;22.8;59.0
78514;SHT31;67814;51.976;5.810;2023-07-13T10:00:56;22.8;58.7
78514;SHT31;67814;51.976;5.810;2023-07-13T10:03:27;22.8;58.8
78514;SHT31;67814;51.976;5.810;2023-07-13T10:06:10;22.8;58.1
78514;SHT31;67814;51.976;5.810;2023-07-13T10:08:39;22.8;57.8
78514;SHT31;67814;51.976;5.810;2023-07-13T10:11:12;22.8;57.5
78514;SHT31;67814;51.976;5.810;2023-07-13T10:13:45;22.8;57.6
78514;SHT31;67814;51.976;5.810;2023-07-13T10:16:15;22.8;58.5
78514;SHT31;67814;51.976;5.810;2023-07-13T10:18:48;22.9;57.5
78514;SHT31;67814;51.976;5.810;2023-07-13T10:21:19;22.9;56.8
78514;SHT31;67814;51.976;5.810;2023-07-13T10:23:54;23.0;56.5
78514;SHT31;67814;51.976;5.810;2023-07-13T10:26:27;23.1;55.5
78514;SHT31;67814;51.976;5.810;2023-07-13T10:29:03;23.1;56.4
78514;SHT31;67814;51.976;5.810;2023-07-13T10:31:35;23.2;58.1
78514;SHT31;67814;51.976;5.810;2023-07-13T10:34:08;23.2;57.6
78514;SHT31;67814;51.976;5.810;2023-07-13T10:36:40;23.3;55.3
78514;SHT31;67814;51.976;5.810;2023-07-13T10:39:19;23.4;55.0
78514;SHT31;67814;51.976;5.810;2023-07-13T10:41:54;23.4;57.0
78514;SHT31;67814;51.976;5.810;2023-07-13T10:44:27;23.4;57.9
78514;SHT31;67814;51.976;5.810;2023-07-13T10:46:59;23.4;59.0
78514;SHT31;67814;51.976;5.810;2023-07-13T10:49:31;23.4;60.3
78514;SHT31;67814;51.976;5.810;2023-07-13T10:52:02;23.4;60.6
78514;SHT31;67814;51.976;5.810;2023-07-13T10:54:33;23.3;59.7
78514;SHT31;67814;51.976;5.810;2023-07-13T10:57:15;23.4;60.4
78514;SHT31;67814;51.976;5.810;2023-07-13T10:59:46;23.4;60.5
78514;SHT31;67814;51.976;5.810;2023-07-13T11:02:23;23.6;58.2
78514;SHT31;67814;51.976;5.810;2023-07-13T11:04:55;23.7;58.3
78514;SHT31;67814;51.976;5.810;2023-07-13T11:07:26;23.8;54.1
78514;SHT31;67814;51.976;5.810;2023-07-13T11:09:57;23.9;54.4
78514;SHT31;67814;51.976;5.810;2023-07-13T11:12:53;24.0;54.0
78514;SHT31;67814;51.976;5.810;2023-07-13T11:15:32;24.1;53.7
78514;SHT31;67814;51.976;5.810;2023-07-13T11:18:11;24.2;51.7
78514;SHT31;67814;51.976;5.810;2023-07-13T11:20:40;24.2;50.0
78514;SHT31;67814;51.976;5.810;2023-07-13T11:23:28;24.2;48.3
78514;SHT31;67814;51.976;5.810;2023-07-13T11:25:58;24.2;50.6
78514;SHT31;67814;51.976;5.810;2023-07-13T11:28:31;24.2;49.1
78514;SHT31;67814;51.976;5.810;2023-07-13T11:31:03;24.2;50.8
78514;SHT31;67814;51.976;5.810;2023-07-13T11:33:50;24.3;50.7
78514;SHT31;67814;51.976;5.810;2023-07-13T11:36:21;24.3;50.2
78514;SHT31;67814;51.976;5.810;2023-07-13T11:39:03;24.3;50.4
78514;SHT31;67814;51.976;5.810;2023-07-13T11:41:36;24.4;50.5
78514;SHT31;67814;51.976;5.810;2023-07-13T11:44:13;24.4;49.8
78514;SHT31;67814;51.976;5.810;2023-07-13T11:46:47;24.5;50.0
78514;SHT31;67814;51.976;5.810;2023-07-13T11:49:21;24.5;49.5
78514;SHT31;67814;51.976;5.810;2023-07-13T11:51:51;24.5;50.7
78514;SHT31;67814;51.976;5.810;2023-07-13T11:54:27;24.6;50.2
78514;SHT31;67814;51.976;5.810;2023-07-13T11:56:59;24.6;49.5
78514;SHT31;67814;51.976;5.810;2023-07-13T11:59:37;24.6;49.8
78514;SHT31;67814;51.976;5.810;2023-07-13T12:02:20;24.6;50.1
78514;SHT31;67814;51.976;5.810;2023-07-13T12:04:53;24.5;51.0
78514;SHT31;67814;51.976;5.810;2023-07-13T12:07:22;24.5;50.8
78514;SHT31;67814;51.976;5.810;2023-07-13T12:09:50;24.4;51.9
78514;SHT31;67814;51.976;5.810;2023-07-13T12:12:22;24.4;52.7
78514;SHT31;67814;51.976;5.810;2023-07-13T12:14:52;24.4;52.3
78514;SHT31;67814;51.976;5.810;2023-07-13T12:17:23;24.4;52.3
78514;SHT31;67814;51.976;5.810;2023-07-13T12:19:53;24.4;52.4
78514;SHT31;67814;51.976;5.810;2023-07-13T12:22:22;24.5;50.4
78514;SHT31;67814;51.976;5.810;2023-07-13T12:24:51;24.5;49.0
78514;SHT31;67814;51.976;5.810;2023-07-13T12:27:24;24.5;48.6
78514;SHT31;67814;51.976;5.810;2023-07-13T12:29:58;24.6;50.7
78514;SHT31;67814;51.976;5.810;2023-07-13T12:32:27;24.6;50.5
78514;SHT31;67814;51.976;5.810;2023-07-13T12:35:06;24.7;50.0
78514;SHT31;67814;51.976;5.810;2023-07-13T12:37:36;24.8;49.4
78514;SHT31;67814;51.976;5.810;2023-07-13T12:40:05;24.9;48.8
78514;SHT31;67814;51.976;5.810;2023-07-13T12:42:40;24.9;48.5
78514;SHT31;67814;51.976;5.810;2023-07-13T12:45:19;24.9;48.8
78514;SHT31;67814;51.976;5.810;2023-07-13T12:47:53;24.8;50.2
78514;SHT31;67814;51.976;5.810;2023-07-13T12:50:28;24.8;48.2
78514;SHT31;67814;51.976;5.810;2023-07-13T12:53:02;24.8;49.4
78514;SHT31;67814;51.976;5.810;2023-07-13T12:55:44;24.8;48.5
78514;SHT31;67814;51.976;5.810;2023-07-13T12:58:18;24.8;47.8
78514;SHT31;67814;51.976;5.810;2023-07-13T13:00:51;24.8;47.8
78514;SHT31;67814;51.976;5.810;2023-07-13T13:03:26;24.8;45.1
78514;SHT31;67814;51.976;5.810;2023-07-13T13:06:02;24.8;44.7
78514;SHT31;67814;51.976;5.810;2023-07-13T13:08:33;24.8;44.0
78514;SHT31;67814;51.976;5.810;2023-07-13T13:11:02;24.8;45.6
78514;SHT31;67814;51.976;5.810;2023-07-13T13:13:31;24.7;48.2
78514;SHT31;67814;51.976;5.810;2023-07-13T13:16:09;24.7;47.1
78514;SHT31;67814;51.976;5.810;2023-07-13T13:18:38;24.8;47.0
78514;SHT31;67814;51.976;5.810;2023-07-13T13:21:06;24.8;45.8
78514;SHT31;67814;51.976;5.810;2023-07-13T13:23:35;24.9;46.3
78514;SHT31;67814;51.976;5.810;2023-07-13T13:26:10;24.9;46.5
78514;SHT31;67814;51.976;5.810;2023-07-13T13:28:39;25.0;45.2
78514;SHT31;67814;51.976;5.810;2023-07-13T13:31:09;25.0;45.5
78514;SHT31;67814;51.976;5.810;2023-07-13T13:33:41;25.1;45.8
78514;SHT31;67814;51.976;5.810;2023-07-13T13:36:16;25.1;45.9
78514;SHT31;67814;51.976;5.810;2023-07-13T13:38:46;25.1;45.0
78514;SHT31;67814;51.976;5.810;2023-07-13T13:41:16;25.2;44.8
78514;SHT31;67814;51.976;5.810;2023-07-13T13:43:45;25.2;45.9
78514;SHT31;67814;51.976;5.810;2023-07-13T13:46:18;25.3;44.9
78514;SHT31;67814;51.976;5.810;2023-07-13T13:48:48;25.3;44.5
78514;SHT31;67814;51.976;5.810;2023-07-13T13:51:19;25.3;44.2
78514;SHT31;67814;51.976;5.810;2023-07-13T13:53:50;25.3;43.8
78514;SHT31;67814;51.976;5.810;2023-07-13T13:56:20;25.2;44.1
78514;SHT31;67814;51.976;5.810;2023-07-13T13:58:49;25.2;45.3
78514;SHT31;67814;51.976;5.810;2023-07-13T14:01:20;25.2;44.1
78514;SHT31;67814;51.976;5.810;2023-07-13T14:03:50;25.2;45.2
78514;SHT31;67814;51.976;5.810;2023-07-13T14:06:19;25.2;43.5
78514;SHT31;67814;51.976;5.810;2023-07-13T14:08:50;25.2;45.1
78514;SHT31;67814;51.976;5.810;2023-07-13T14:11:21;25.2;45.1
78514;SHT31;67814;51.976;5.810;2023-07-13T14:13:51;25.2;45.2
78514;SHT31;67814;51.976;5.810;2023-07-13T14:16:21;25.2;45.7
78514;SHT31;67814;51.976;5.810;2023-07-13T14:18:51;25.2;45.3
78514;SHT31;67814;51.976;5.810;2023-07-13T14:21:21;25.2;44.0
78514;SHT31;67814;51.976;5.810;2023-07-13T14:23:50;25.2;44.8
78514;SHT31;67814;51.976;5.810;2023-07-13T14:26:22;25.1;43.9
78514;SHT31;67814;51.976;5.810;2023-07-13T14:28:54;25.1;43.8
78514;SHT31;67814;51.976;5.810;2023-07-13T14:31:25;25.0;44.1
78514;SHT31;67814;51.976;5.810;2023-07-13T14:33:55;25.0;44.7
78514;SHT31;67814;51.976;5.810;2023-07-13T14:36:28;25.0;43.9
78514;SHT31;67814;51.976;5.810;2023-07-13T14:38:59;25.0;44.1
78514;SHT31;67814;51.976;5.810;2023-07-13T14:41:27;25.0;44.9
78514;SHT31;67814;51.976;5.810;2023-07-13T14:43:56;25.0;43.5
78514;SHT31;67814;51.976;5.810;2023-07-13T14:46:29;25.0;43.2
78514;SHT31;67814;51.976;5.810;2023-07-13T14:49:02;25.0;43.9
78514;SHT31;67814;51.976;5.810;2023-07-13T14:51:33;25.0;44.5
78514;SHT31;67814;51.976;5.810;2023-07-13T14:54:05;25.0;45.2
78514;SHT31;67814;51.976;5.810;2023-07-13T14:56:36;25.0;44.5
78514;SHT31;67814;51.976;5.810;2023-07-13T14:59:04;25.0;44.7
78514;SHT31;67814;51.976;5.810;2023-07-13T15:01:34;25.0;44.6
78514;SHT31;67814;51.976;5.810;2023-07-13T15:04:04;25.1;44.9
78514;SHT31;67814;51.976;5.810;2023-07-13T15:06:56;25.1;45.7
78514;SHT31;67814;51.976;5.810;2023-07-13T15:09:25;25.1;45.2
78514;SHT31;67814;51.976;5.810;2023-07-13T15:11:56;25.1;47.3
78514;SHT31;67814;51.976;5.810;2023-07-13T15:14:25;25.1;44.8
78514;SHT31;67814;51.976;5.810;2023-07-13T15:16:56;25.1;46.1
78514;SHT31;67814;51.976;5.810;2023-07-13T15:19:25;25.1;46.9
78514;SHT31;67814;51.976;5.810;2023-07-13T15:21:56;25.1;45.3
78514;SHT31;67814;51.976;5.810;2023-07-13T15:24:27;25.2;45.7
78514;SHT31;67814;51.976;5.810;2023-07-13T15:26:58;25.2;45.2
78514;SHT31;67814;51.976;5.810;2023-07-13T15:29:26;25.2;45.4
78514;SHT31;67814;51.976;5.810;2023-07-13T15:31:55;25.2;44.2
78514;SHT31;67814;51.976;5.810;2023-07-13T15:34:25;25.2;44.5
78514;SHT31;67814;51.976;5.810;2023-07-13T15:36:54;25.1;44.4
78514;SHT31;67814;51.976;5.810;2023-07-13T15:39:23;25.1;44.5
78514;SHT31;67814;51.976;5.810;2023-07-13T15:41:52;25.1;44.6
78514;SHT31;67814;51.976;5.810;2023-07-13T15:44:28;25.1;46.4
78514;SHT31;67814;51.976;5.810;2023-07-13T15:46:59;25.1;45.5
78514;SHT31;67814;51.976;5.810;2023-07-13T15:49:31;25.1;44.8
78514;SHT31;67814;51.976;5.810;2023-07-13T15:52:00;25.0;46.0
78514;SHT31;67814;51.976;5.810;2023-07-13T15:54:29;25.0;45.7
78514;SHT31;67814;51.976;5.810;2023-07-13T15:57:04;25.0;46.7
78514;SHT31;67814;51.976;5.810;2023-07-13T15:59:38;25.0;47.7
78514;SHT31;67814;51.976;5.810;2023-07-13T16:02:17;25.0;47.2
78514;SHT31;67814;51.976;5.810;2023-07-13T16:04:46;25.0;47.5
78514;SHT31;67814;51.976;5.810;2023-07-13T16:07:19;25.0;47.0
78514;SHT31;67814;51.976;5.810;2023-07-13T16:09:49;25.0;47.1
78514;SHT31;67814;51.976;5.810;2023-07-13T16:12:18;25.0;47.0
78514;SHT31;67814;51.976;5.810;2023-07-13T16:14:47;25.0;47.8
78514;SHT31;67814;51.976;5.810;2023-07-13T16:17:16;25.0;47.8
78514;SHT31;67814;51.976;5.810;2023-07-13T16:19:45;24.9;47.2
78514;SHT31;67814;51.976;5.810;2023-07-13T16:22:17;24.9;47.8
78514;SHT31;67814;51.976;5.810;2023-07-13T16:24:48;24.8;49.0
78514;SHT31;67814;51.976;5.810;2023-07-13T16:27:21;24.8;48.8